Time;durP1;ratioP1;P1;durP2;ratioP2;P2;SDS_P1;SDS_P2;PMS_P1;PMS_P2;Temp;Humidity;BMP_temperature;BMP_pressure;BME280_temperature;BME280_humidity;BME280_pressure;Samples;Min_cycle;Max_cycle;Signal;HPM_P1;HPM_P2
2023/07/13 00:02:09;;;;;;;26.40;1.73;;;;;;;26.83;53.44;99108.56;7312759;19;129099;-34
2023/07/13 00:04:34;;;;;;;32.50;1.83;;;;;;;26.85;53.63;99117.09;7312636;19;130120;-33
2023/07/13 00:07:00;;;;;;;79.40;4.60;;;;;;;26.85;53.93;99105.72;7311134;19;130857;-38
2023/07/13 00:09:25;;;;;;;32.43;1.97;;;;;;;26.88;53.64;99108.00;7313080;19;128987;-34
2023/07/13 00:11:54;;;;;;;34.20;2.10;;;;;;;26.87;53.50;99115.06;7311569;19;131353;-35
2023/07/13 00:14:20;;;;;;;24.52;1.45;;;;;;;26.89;53.63;99107.00;7311688;19;129314;-33
2023/07/13 00:16:46;;;;;;;53.17;2.97;;;;;;;26.88;53.68;99100.91;7310685;19;129594;-35
2023/07/13 00:19:12;;;;;;;25.47;1.50;;;;;;;26.88;53.94;99100.91;7310595;19;129657;-36
2023/07/13 00:21:39;;;;;;;31.23;1.83;;;;;;;26.89;53.90;99107.00;7309128;19;129288;-29
2023/07/13 00:24:06;;;;;;;39.95;2.53;;;;;;;26.37;50.04;99122.94;7307444;19;129011;-34
2023/07/13 00:26:32;;;;;;;41.10;2.28;;;;;;;26.26;49.63;99120.72;7310352;19;129383;-37
2023/07/13 00:28:58;;;;;;;58.45;3.47;;;;;;;26.22;49.56;99129.19;7310076;19;129105;-36
2023/07/13 00:31:23;;;;;;;26.67;1.50;;;;;;;26.58;53.37;99125.66;7308240;19;129275;-34
2023/07/13 00:33:49;;;;;;;26.47;1.50;;;;;;;26.66;53.58;99122.13;7310691;19;130331;-37
2023/07/13 00:36:15;;;;;;;45.73;2.67;;;;;;;26.77;53.11;99135.69;7308836;19;131220;-34
2023/07/13 00:38:40;;;;;;;29.00;1.67;;;;;;;26.82;53.50;99154.38;7308095;19;128998;-37
2023/07/13 00:41:06;;;;;;;72.37;4.17;;;;;;;26.85;53.79;99164.59;7308101;19;129319;-34
2023/07/13 00:43:31;;;;;;;26.80;1.57;;;;;;;26.88;53.74;99174.78;7310717;19;130180;-34
2023/07/13 00:46:24;;;;;;;68.70;3.77;;;;;;;26.93;53.74;99179.50;7310486;19;130288;-37
2023/07/13 00:48:50;;;;;;;45.05;2.47;;;;;;;26.89;53.74;99197.50;7309861;19;129173;-35
2023/07/13 00:51:18;;;;;;;;;;;;;;;26.98;54.05;99206.13;7310407;19;129660;-37
2023/07/13 00:53:44;;;;;;;15.82;0.90;;;;;;;26.91;53.97;99210.50;7310557;19;131253;-34
2023/07/13 00:56:10;;;;;;;79.73;4.57;;;;;;;26.88;54.00;99195.06;7309774;19;130290;-38
2023/07/13 00:58:36;;;;;;;45.28;2.58;;;;;;;26.90;53.38;99198.31;7307171;19;130126;-39
2023/07/13 01:01:01;;;;;;;66.70;3.97;;;;;;;26.57;51.02;99189.94;7308297;19;129823;-36
2023/07/13 01:03:26;;;;;;;24.07;1.50;;;;;;;26.23;49.84;99173.81;7310798;19;130176;-35
2023/07/13 01:05:53;;;;;;;22.20;1.27;;;;;;;26.23;49.29;99189.63;7309983;19;129271;-37
2023/07/13 01:08:19;;;;;;;;;;;;;;;26.47;53.39;99180.66;7309738;19;129215;-37
2023/07/13 01:10:55;;;;;;;26.08;1.42;;;;;;;26.69;52.96;99166.59;7309138;19;129137;-38
2023/07/13 01:13:21;;;;;;;50.30;3.07;;;;;;;26.76;52.92;99146.38;7310570;19;131180;-36
2023/07/13 01:15:48;;;;;;;33.83;1.90;;;;;;;26.80;53.62;99124.75;7309234;19;130483;-40
2023/07/13 01:18:26;;;;;;;49.45;2.72;;;;;;;26.85;53.32;99117.09;7305194;19;129173;-36
2023/07/13 01:20:55;;;;;;;36.60;1.98;;;;;;;26.86;53.78;99128.47;7308474;19;130144;-35
2023/07/13 01:23:22;;;;;;;49.17;3.03;;;;;;;26.86;53.34;99144.28;7309378;19;129577;-37
2023/07/13 01:25:47;;;;;;;;;;;;;;;26.97;53.33;99146.47;7310389;19;130385;-34
2023/07/13 01:28:13;;;;;;;27.27;1.50;;;;;;;26.89;53.45;99138.66;7308942;19;130566;-32
2023/07/13 01:30:40;;;;;;;54.13;3.00;;;;;;;26.89;53.72;99144.72;7306555;19;130334;-39
2023/07/13 01:33:07;;;;;;;25.58;1.52;;;;;;;26.89;53.70;99141.31;7309533;19;129068;-35
2023/07/13 01:35:33;;;;;;;32.90;2.05;;;;;;;26.89;54.31;99151.84;7309917;19;130215;-32
2023/07/13 01:38:00;;;;;;;32.88;2.00;;;;;;;26.89;53.61;99146.56;7314067;19;130096;-32
2023/07/13 01:40:25;;;;;;;27.27;1.63;;;;;;;26.42;50.02;99151.38;7314416;19;130122;-37
2023/07/13 01:42:50;;;;;;;26.10;1.50;;;;;;;26.23;49.85;99147.44;7315370;19;129422;-35
2023/07/13 01:45:16;;;;;;;27.80;1.63;;;;;;;26.18;49.68;99144.53;7315232;19;129254;-33
2023/07/13 01:47:41;;;;;;;61.97;3.57;;;;;;;26.43;52.98;99153.84;7313631;19;129209;-37
2023/07/13 01:50:07;;;;;;;38.67;2.10;;;;;;;26.67;52.86;99145.69;7314206;19;128791;-35
2023/07/13 01:52:32;;;;;;;29.03;1.77;;;;;;;26.79;53.33;99146.84;7314964;19;129376;-36
2023/07/13 01:54:57;;;;;;;65.87;3.93;;;;;;;26.84;53.68;99149.75;7313979;19;129115;-35
2023/07/13 01:57:23;;;;;;;41.60;2.20;;;;;;;26.86;53.33;99142.47;7314726;19;129869;-37
2023/07/13 01:59:48;;;;;;;39.50;2.20;;;;;;;26.89;53.18;99141.31;7315416;19;129554;-37
2023/07/13 02:02:13;;;;;;;7.00;0.67;;;;;;;26.89;53.78;99147.38;7315174;19;129565;-34
2023/07/13 02:04:40;;;;;;;28.27;1.60;;;;;;;26.90;53.60;99140.28;7315409;19;130236;-31
2023/07/13 02:07:05;;;;;;;128.02;7.35;;;;;;;26.91;53.26;99144.56;7312770;19;130646;-35
2023/07/13 02:09:31;;;;;;;15.63;1.00;;;;;;;26.90;53.46;99146.38;7315657;19;128933;-37
2023/07/13 02:11:56;;;;;;;33.03;1.73;;;;;;;26.90;53.78;99135.84;7315296;19;131819;-32
2023/07/13 02:14:22;;;;;;;42.40;2.53;;;;;;;26.90;53.61;99135.84;7313161;19;129456;-39
2023/07/13 02:16:48;;;;;;;49.67;2.73;;;;;;;26.80;54.09;99124.75;7314585;19;129104;-36
2023/07/13 02:19:14;;;;;;;54.08;3.20;;;;;;;26.44;50.35;99134.41;7311765;19;129474;-29
2023/07/13 02:21:39;;;;;;;28.87;1.70;;;;;;;26.26;49.60;99136.53;7310789;19;130897;-34
2023/07/13 02:24:04;;;;;;;27.27;1.50;;;;;;;26.21;49.85;99136.28;7314587;19;129628;-33
2023/07/13 02:26:30;;;;;;;65.07;3.77;;;;;;;26.48;53.41;99140.94;7314389;19;129059;-36
2023/07/13 02:28:55;;;;;;;15.30;0.97;;;;;;;26.69;53.26;99143.66;7315351;19;129353;-35
2023/07/13 02:31:20;;;;;;;37.33;2.23;;;;;;;26.76;53.32;99149.03;7312083;19;130351;-34
2023/07/13 02:33:46;;;;;;;34.60;2.00;;;;;;;26.82;53.57;99149.09;7314764;19;130245;-34
2023/07/13 02:36:13;;;;;;;41.13;2.23;;;;;;;26.84;53.74;99152.38;7313843;19;130377;-35
2023/07/13 02:38:39;;;;;;;38.60;2.40;;;;;;;26.86;53.38;99153.03;7310539;19;130060;-39
2023/07/13 02:41:06;;;;;;;29.87;1.67;;;;;;;26.89;53.89;99152.66;7312071;19;130023;-34
2023/07/13 02:43:32;;;;;;;45.15;2.60;;;;;;;26.89;54.04;99152.66;7312769;19;130801;-37
2023/07/13 02:46:03;;;;;;;33.03;2.07;;;;;;;26.88;53.77;99147.56;7313822;19;129045;-34
2023/07/13 02:48:29;;;;;;;26.20;1.58;;;;;;;26.89;53.64;99150.00;7311905;19;128937;-34
2023/07/13 02:50:55;;;;;;;40.63;2.43;;;;;;;26.80;53.88;99137.13;7311241;19;130566;-36
2023/07/13 02:53:20;;;;;;;33.83;1.93;;;;;;;26.88;53.64;99153.66;7313473;19;130901;-34
2023/07/13 02:55:47;;;;;;;64.83;3.73;;;;;;;26.85;53.72;99148.75;7312506;19;129098;-35
2023/07/13 02:58:16;;;;;;;;;;;;;;;26.49;51.81;99158.41;7312195;19;129519;-32
2023/07/13 03:00:46;;;;;;;26.63;1.60;;;;;;;26.31;50.08;99163.19;7312064;19;131109;-34
2023/07/13 03:03:13;;;;;;;25.77;1.58;;;;;;;26.27;49.35;99158.44;7313334;19;129578;-39
2023/07/13 03:05:41;;;;;;;45.70;2.53;;;;;;;26.54;53.42;99163.91;7313100;19;130359;-34
2023/07/13 03:08:07;;;;;;;63.22;3.42;;;;;;;26.72;53.08;99160.97;7312528;19;131048;-37
2023/07/13 03:10:33;;;;;;;28.40;1.63;;;;;;;26.80;53.39;99158.22;7312400;19;130157;-34
2023/07/13 03:12:58;;;;;;;60.17;3.30;;;;;;;26.81;53.04;99159.84;7312110;19;131252;-40
2023/07/13 03:15:24;;;;;;;22.33;1.40;;;;;;;26.76;53.66;99143.75;7311973;19;129056;-35
2023/07/13 03:17:49;;;;;;;42.67;2.33;;;;;;;26.87;53.60;99165.19;7312344;19;129227;-39
2023/07/13 03:20:15;;;;;;;54.00;3.03;;;;;;;26.89;53.12;99172.97;7310870;19;129399;-30
2023/07/13 03:22:40;;;;;;;28.10;1.57;;;;;;;26.90;53.31;99167.50;7313408;19;130264;-37
2023/07/13 03:25:06;;;;;;;40.73;2.23;;;;;;;26.90;53.43;99170.13;7313643;19;129976;-38
2023/07/13 03:27:31;;;;;;;31.47;1.80;;;;;;;26.83;53.62;99156.03;7312320;19;129139;-35
2023/07/13 03:29:56;;;;;;;25.47;1.53;;;;;;;26.91;53.72;99169.13;7312646;19;131896;-35
2023/07/13 03:32:22;;;;;;;61.00;3.50;;;;;;;26.91;54.04;99163.00;7311475;19;129665;-36
2023/07/13 03:34:47;;;;;;;28.03;1.60;;;;;;;26.91;54.23;99168.28;7313517;19;130505;-34
2023/07/13 03:37:13;;;;;;;44.97;2.67;;;;;;;26.46;50.53;99173.75;7312071;19;129643;-31
2023/07/13 03:39:38;;;;;;;70.80;3.97;;;;;;;26.27;49.65;99180.38;7311049;19;130109;-40
2023/07/13 03:42:03;;;;;;;20.93;1.27;;;;;;;26.22;49.11;99177.44;7312664;19;129609;-34
2023/07/13 03:44:29;;;;;;;34.60;1.97;;;;;;;26.50;53.64;99183.75;7312582;19;128854;-36
2023/07/13 03:46:54;;;;;;;24.60;1.47;;;;;;;26.71;52.75;99183.03;7311783;19;128910;-37
2023/07/13 03:49:20;;;;;;;29.90;1.80;;;;;;;26.79;53.16;99181.13;7311617;19;129166;-34
2023/07/13 03:51:45;;;;;;;42.63;2.30;;;;;;;26.85;53.65;99179.59;7308902;19;130175;-35
2023/07/13 03:54:10;;;;;;;33.03;1.90;;;;;;;26.87;53.40;99188.94;7313360;19;128982;-37
2023/07/13 03:56:36;;;;;;;13.57;0.90;;;;;;;26.88;53.48;99195.88;7311988;19;129054;-37
2023/07/13 03:59:02;;;;;;;27.67;1.63;;;;;;;26.90;53.48;99199.16;7308464;19;129350;-31
2023/07/13 04:01:27;;;;;;;41.67;2.28;;;;;;;26.90;53.66;99199.16;7310330;19;130442;-32
2023/07/13 04:03:53;;;;;;;75.07;4.40;;;;;;;26.90;53.58;99198.31;7311600;19;130966;-36
2023/07/13 04:06:26;;;;;;;27.93;1.73;;;;;;;26.91;53.61;99206.06;7312417;19;131501;-34
2023/07/13 04:08:54;;;;;;;28.02;1.67;;;;;;;26.90;53.69;99209.72;7309772;19;130058;-36
2023/07/13 04:11:22;;;;;;;44.92;2.47;;;;;;;26.91;53.84;99213.97;7309189;19;131927;-31
2023/07/13 04:13:48;;;;;;;61.17;3.45;;;;;;;26.79;51.63;99220.69;7310700;19;129204;-37
2023/07/13 04:16:17;;;;;;;28.03;1.60;;;;;;;26.31;50.42;99207.97;7311388;19;129140;-32
2023/07/13 04:18:44;;;;;;;42.72;2.30;;;;;;;26.33;49.48;99227.09;7308267;19;130998;-37
2023/07/13 04:21:09;;;;;;;29.45;1.67;;;;;;;26.33;51.68;99227.09;7307970;19;130534;-35
2023/07/13 04:23:35;;;;;;;13.33;0.97;;;;;;;26.55;53.06;99199.84;7311878;19;128873;-34
2023/07/13 04:26:01;;;;;;;58.00;3.50;;;;;;;26.77;53.38;99217.44;7310069;19;128902;-35
2023/07/13 04:28:27;;;;;;;22.50;1.37;;;;;;;26.83;53.61;99218.53;7310217;19;128980;-35
2023/07/13 04:30:52;;;;;;;32.27;1.90;;;;;;;26.83;53.32;99214.06;7308402;19;130628;-38
2023/07/13 04:33:22;;;;;;;37.17;2.20;;;;;;;26.89;53.36;99223.88;7311753;19;129225;-32
2023/07/13 04:35:56;;;;;;;34.45;2.03;;;;;;;26.87;53.99;99217.97;7310315;19;130487;-34
2023/07/13 04:38:24;;;;;;;4.50;0.43;;;;;;;26.90;53.75;99224.72;7308514;19;130975;-36
2023/07/13 04:40:51;;;;;;;30.98;1.75;;;;;;;26.90;53.99;99225.53;7309110;19;130549;-38
2023/07/13 04:43:17;;;;;;;52.25;3.08;;;;;;;26.90;53.57;99233.44;7310722;19;130056;-33
2023/07/13 04:45:42;;;;;;;34.00;1.90;;;;;;;26.92;53.35;99225.34;7311326;19;129862;-33
2023/07/13 04:48:07;;;;;;;62.87;3.73;;;;;;;26.92;54.23;99234.06;7309240;19;129579;-34
2023/07/13 04:50:36;;;;;;;44.23;2.37;;;;;;;26.92;54.10;99234.06;7309949;19;130326;-33
2023/07/13 04:53:01;;;;;;;38.70;2.17;;;;;;;26.65;50.19;99234.72;7310896;19;129269;-40
2023/07/13 04:55:30;;;;;;;25.93;1.53;;;;;;;26.34;49.85;99234.00;7310233;19;130868;-34
2023/07/13 04:57:56;;;;;;;29.00;1.63;;;;;;;26.21;49.57;99233.81;7307606;19;130990;-33
2023/07/13 05:00:21;;;;;;;63.00;3.80;;;;;;;26.36;53.05;99241.75;7308813;19;129624;-30
2023/07/13 05:02:47;;;;;;;47.40;2.57;;;;;;;26.67;53.25;99230.09;7311046;19;128991;-35
2023/07/13 05:05:13;;;;;;;52.20;3.07;;;;;;;26.78;53.16;99227.00;7311112;19;129324;-40
2023/07/13 05:07:38;;;;;;;15.90;1.03;;;;;;;26.85;53.21;99238.47;7309660;19;129500;-32
2023/07/13 05:10:04;;;;;;;37.33;2.03;;;;;;;26.88;53.45;99240.72;7311325;19;129519;-35
2023/07/13 05:12:30;;;;;;;45.10;2.73;;;;;;;26.79;53.51;99215.41;7316399;19;129972;-33
2023/07/13 05:14:56;;;;;;;24.55;1.48;;;;;;;26.89;53.58;99231.78;7315867;19;129389;-32
2023/07/13 05:17:21;;;;;;;35.37;2.27;;;;;;;26.85;53.83;99227.91;7314009;19;129127;-34
2023/07/13 05:19:47;;;;;;;43.13;2.27;;;;;;;26.92;53.27;99233.28;7314764;19;129626;-37
2023/07/13 05:22:12;;;;;;;19.03;1.10;;;;;;;26.84;53.60;99220.97;7315083;19;129592;-40
2023/07/13 05:24:37;;;;;;;40.97;2.27;;;;;;;26.93;53.50;99241.00;7315018;19;129361;-39
2023/07/13 05:27:03;;;;;;;68.47;3.97;;;;;;;26.92;53.49;99236.69;7313158;19;129021;-41
2023/07/13 05:29:29;;;;;;;76.00;4.30;;;;;;;26.89;53.78;99234.44;7313616;19;130290;-43
2023/07/13 05:31:54;;;;;;;29.13;1.67;;;;;;;26.77;50.76;99238.56;7312486;19;129190;-39
2023/07/13 05:34:20;;;;;;;81.17;4.50;;;;;;;26.37;50.07;99231.00;7314553;19;130101;-42
2023/07/13 05:36:45;;;;;;;35.03;1.83;;;;;;;26.24;49.50;99243.97;7314532;19;130324;-40
2023/07/13 05:39:11;;;;;;;28.60;1.67;;;;;;;26.26;52.07;99247.22;7312898;19;129469;-41
2023/07/13 05:41:37;;;;;;;62.90;3.67;;;;;;;26.61;52.97;99241.31;7311977;19;129627;-42
2023/07/13 05:44:02;;;;;;;29.80;1.60;;;;;;;26.74;53.43;99230.97;7313009;19;129483;-41
2023/07/13 05:46:28;;;;;;;43.63;2.67;;;;;;;26.84;53.01;99238.63;7313125;19;130259;-39
2023/07/13 05:48:53;;;;;;;42.60;2.30;;;;;;;26.77;53.32;99235.91;7313180;19;129731;-41
2023/07/13 05:51:19;;;;;;;51.87;3.03;;;;;;;26.89;53.86;99250.25;7309617;19;129477;-38
2023/07/13 05:53:44;;;;;;;34.23;1.97;;;;;;;26.91;53.54;99252.72;7313270;19;131395;-37
2023/07/13 05:56:09;;;;;;;38.50;2.13;;;;;;;26.91;53.65;99237.72;7312620;19;129679;-40
2023/07/13 05:58:35;;;;;;;66.90;3.90;;;;;;;26.92;53.84;99241.97;7310712;19;130605;-39
2023/07/13 06:01:11;;;;;;;9.57;0.73;;;;;;;26.94;53.68;99242.63;7311215;19;129211;-42
2023/07/13 06:03:40;;;;;;;42.97;2.83;;;;;;;26.92;53.99;99241.97;7312146;19;129261;-42
2023/07/13 06:06:07;;;;;;;21.95;1.30;;;;;;;26.92;54.01;99238.53;7312764;19;129070;-40
2023/07/13 06:08:32;;;;;;;;;;;;;;;27.03;54.03;99245.16;7312521;19;129470;-38
2023/07/13 06:11:12;;;;;;;28.63;1.73;;;;;;;26.55;51.69;99242.03;7310564;19;129151;-41
2023/07/13 06:13:37;;;;;;;26.85;1.70;;;;;;;26.35;49.56;99256.72;7162450;19;2928626;-40
2023/07/13 06:16:06;;;;;;;27.83;1.60;;;;;;;26.30;49.41;99258.25;7315499;19;131126;-40
2023/07/13 06:18:33;;;;;;;16.23;1.17;;;;;;;26.47;53.01;99260.56;7313004;19;129541;-41
2023/07/13 06:20:59;;;;;;;46.65;2.67;;;;;;;26.70;52.98;99261.38;7312455;19;129079;-39
2023/07/13 06:23:25;;;;;;;33.93;2.00;;;;;;;26.79;53.35;99270.81;7314978;19;128920;-40
2023/07/13 06:25:50;;;;;;;56.28;3.53;;;;;;;26.84;53.74;99263.19;7314965;19;130322;-43
2023/07/13 06:28:15;;;;;;;33.07;1.80;;;;;;;26.87;53.41;99268.09;7314150;19;129450;-40
2023/07/13 06:30:41;;;;;;;33.80;1.90;;;;;;;26.87;53.99;99257.53;7314208;19;128984;-40
2023/07/13 06:33:06;;;;;;;23.60;1.43;;;;;;;26.91;53.65;99258.81;7315575;19;129476;-40
2023/07/13 06:35:32;;;;;;;26.87;1.57;;;;;;;26.91;53.51;99258.81;7315621;19;131633;-43
2023/07/13 06:37:57;;;;;;;82.17;4.80;;;;;;;26.88;53.95;99253.09;7312879;19;129830;-39
2023/07/13 06:40:23;;;;;;;30.47;1.77;;;;;;;26.92;53.71;99260.44;7314429;19;129500;-40
2023/07/13 06:42:48;;;;;;;25.10;1.37;;;;;;;26.92;53.91;99260.44;7315189;19;128980;-39
2023/07/13 06:45:13;;;;;;;25.30;1.40;;;;;;;26.92;54.23;99259.66;7314308;19;130390;-40
2023/07/13 06:47:39;;;;;;;80.03;4.70;;;;;;;26.89;53.99;99255.53;7312801;19;132270;-41
2023/07/13 06:50:05;;;;;;;69.13;3.83;;;;;;;26.51;49.74;99261.84;7314622;19;128663;-40
2023/07/13 06:52:30;;;;;;;35.43;2.13;;;;;;;26.34;49.76;99281.47;7314601;19;129636;-42
2023/07/13 06:54:56;;;;;;;11.83;0.80;;;;;;;26.27;49.87;99284.97;7313548;19;130138;-40
2023/07/13 06:57:21;;;;;;;38.27;2.13;;;;;;;26.42;53.30;99289.28;7314144;19;129164;-38
2023/07/13 06:59:46;;;;;;;32.57;1.93;;;;;;;26.68;53.31;99284.47;7312407;19;129554;-42
2023/07/13 07:02:12;;;;;;;86.17;4.73;;;;;;;26.76;53.30;99287.00;7313761;19;130712;-41
2023/07/13 07:04:37;;;;;;;27.30;1.57;;;;;;;26.83;53.06;99295.84;7315077;19;129181;-42
2023/07/13 07:07:03;;;;;;;104.73;6.13;;;;;;;26.85;53.21;99296.50;7312242;19;131245;-38
2023/07/13 07:09:29;;;;;;;15.97;1.00;;;;;;;26.88;53.46;99290.84;7315542;19;129098;-40
2023/07/13 07:11:55;;;;;;;;;;;;;;;26.99;53.90;99292.19;7313801;19;129722;-42
2023/07/13 07:14:20;;;;;;;56.05;3.15;;;;;;;26.92;53.50;99292.09;7312434;19;129176;-42
2023/07/13 07:16:45;;;;;;;41.63;2.30;;;;;;;26.92;53.29;99302.66;7312680;19;130198;-42
2023/07/13 07:19:11;;;;;;;75.57;4.27;;;;;;;26.83;53.21;99287.94;7309168;19;129357;-39
2023/07/13 07:21:36;;;;;;;5.50;0.60;;;;;;;26.91;53.29;99301.03;7310540;19;129140;-41
2023/07/13 07:24:03;;;;;;;35.27;1.97;;;;;;;26.84;53.20;99291.41;7313329;19;129088;-42
2023/07/13 07:26:28;;;;;;;41.60;2.42;;;;;;;26.92;53.90;99304.50;7311831;19;130448;-39
2023/07/13 07:28:54;;;;;;;27.23;1.60;;;;;;;26.59;51.23;99306.59;7312438;19;128935;-40
2023/07/13 07:31:19;;;;;;;49.73;3.10;;;;;;;26.34;49.76;99310.44;7309103;19;129481;-41
2023/07/13 07:33:45;;;;;;;47.13;2.53;;;;;;;26.24;49.15;99307.22;7310940;19;130002;-39
2023/07/13 07:36:11;;;;;;;32.03;1.77;;;;;;;26.21;53.34;99297.06;7312927;19;130438;-40
2023/07/13 07:38:36;;;;;;;23.23;1.35;;;;;;;26.64;53.60;99304.22;7311467;19;128909;-41
2023/07/13 07:41:04;;;;;;;15.77;0.97;;;;;;;26.78;53.40;99310.56;7310565;19;129427;-42
2023/07/13 07:43:30;;;;;;;51.95;2.90;;;;;;;26.82;53.15;99307.38;7311524;19;131253;-41
2023/07/13 07:45:55;;;;;;;28.33;1.60;;;;;;;26.85;53.50;99307.03;7311861;19;131055;-39
2023/07/13 07:48:20;;;;;;;63.53;3.73;;;;;;;26.87;53.48;99305.03;7310330;19;129526;-43
2023/07/13 07:50:46;;;;;;;44.47;2.47;;;;;;;26.89;53.50;99308.31;7309912;19;130462;-42
2023/07/13 07:53:12;;;;;;;77.53;4.37;;;;;;;26.90;53.52;99303.84;7307695;19;131167;-41
2023/07/13 07:55:37;;;;;;;45.20;2.53;;;;;;;26.90;53.20;99304.69;7309327;19;130381;-41
2023/07/13 07:58:03;;;;;;;24.57;1.50;;;;;;;26.89;54.08;99297.75;7311142;19;128832;-41
2023/07/13 08:00:32;;;;;;;55.03;3.40;;;;;;;26.90;53.89;99307.31;7309401;19;129530;-41
2023/07/13 08:02:58;;;;;;;46.33;2.55;;;;;;;26.90;53.89;99304.69;7311973;19;130180;-39
2023/07/13 08:05:23;;;;;;;56.60;3.30;;;;;;;26.91;53.76;99306.31;7310519;19;130490;-39
2023/07/13 08:07:49;;;;;;;51.10;2.77;;;;;;;26.63;51.01;99310.50;7310971;19;131567;-42
2023/07/13 08:10:14;;;;;;;23.57;1.33;;;;;;;26.32;49.73;99304.53;7311137;19;130001;-43
2023/07/13 08:12:40;;;;;;;42.57;2.47;;;;;;;26.24;48.99;99317.78;7310376;19;130296;-42
2023/07/13 08:15:09;;;;;;;28.00;1.57;;;;;;;26.39;53.29;99309.91;7310571;19;129603;-38
2023/07/13 08:17:34;;;;;;;48.97;3.05;;;;;;;26.66;53.35;99318.09;7310632;19;129414;-38
2023/07/13 08:20:00;;;;;;;35.27;2.10;;;;;;;26.77;53.58;99317.69;7307607;19;129047;-41
2023/07/13 08:22:26;;;;;;;47.13;2.67;;;;;;;26.82;53.50;99331.13;7310852;19;130175;-41
2023/07/13 08:24:55;;;;;;;25.00;1.55;;;;;;;26.87;53.37;99327.97;7311769;19;130396;-40
2023/07/13 08:27:22;;;;;;;30.10;1.83;;;;;;;26.87;53.46;99326.13;7311131;19;129047;-42
2023/07/13 08:29:48;;;;;;;18.25;1.13;;;;;;;26.89;53.47;99321.50;7310591;19;129324;-43
2023/07/13 08:32:13;;;;;;;45.47;2.43;;;;;;;26.90;53.51;99309.97;7311338;19;130625;-42
2023/07/13 08:34:39;;;;;;;65.80;3.87;;;;;;;26.91;53.74;99318.69;7311196;19;131052;-41
2023/07/13 08:37:05;;;;;;;55.33;3.57;;;;;;;26.91;53.80;99314.22;7310951;19;129254;-42
2023/07/13 08:39:31;;;;;;;41.97;2.43;;;;;;;26.88;53.88;99306.69;7308433;19;130571;-39
2023/07/13 08:42:01;;;;;;;37.97;1.95;;;;;;;26.92;54.03;99320.34;7310984;19;129669;-38
2023/07/13 08:45:02;;;;;;;24.35;1.40;;;;;;;26.96;53.95;99318.16;7311274;19;129676;-39
2023/07/13 08:47:29;;;;;;;31.30;1.80;;;;;;;26.49;49.75;99313.13;7315049;19;129506;-37
2023/07/13 08:49:56;;;;;;;23.05;1.52;;;;;;;26.26;49.93;99321.03;7316689;19;129363;-37
2023/07/13 08:52:30;;;;;;;;;;;;;;;26.21;49.86;99319.94;7317883;19;130847;-42
2023/07/13 08:55:01;;;;;;;38.13;2.13;;;;;;;26.53;53.60;99319.66;7316166;19;129747;-40
2023/07/13 08:57:32;;;;;;;50.67;2.72;;;;;;;26.72;53.15;99317.41;7316598;19;129112;-39
2023/07/13 08:59:58;;;;;;;38.22;2.10;;;;;;;26.78;53.76;99316.66;7314955;19;128757;-41
2023/07/13 09:02:28;;;;;;;29.20;1.67;;;;;;;26.84;53.94;99320.41;7317828;19;130805;-40
2023/07/13 09:05:03;;;;;;;59.25;3.47;;;;;;;26.87;53.97;99315.56;7314898;19;129373;-39
2023/07/13 09:07:49;;;;;;;31.70;1.83;;;;;;;26.79;53.58;99312.22;7316195;19;129587;-41
2023/07/13 09:10:20;;;;;;;22.17;1.30;;;;;;;26.89;53.86;99332.06;7316051;19;129611;-41
2023/07/13 09:13:04;;;;;;;56.65;3.13;;;;;;;26.93;53.96;99330.69;7316119;19;130906;-39
2023/07/13 09:15:43;;;;;;;46.50;2.53;;;;;;;26.91;53.46;99327.41;7317028;19;130394;-40
2023/07/13 09:18:14;;;;;;;27.17;1.50;;;;;;;26.90;54.05;99336.34;7314260;19;129048;-42
2023/07/13 09:20:48;;;;;;;23.60;1.40;;;;;;;26.91;54.27;99337.97;7315674;19;129687;-41
2023/07/13 09:23:20;;;;;;;23.58;1.38;;;;;;;26.90;54.45;99330.25;7316837;19;130301;-39
2023/07/13 09:25:58;;;;;;;21.80;1.42;;;;;;;26.41;50.75;99340.34;7315500;19;130273;-40
2023/07/13 09:28:32;;;;;;;34.35;1.83;;;;;;;26.24;49.82;99344.13;7315835;19;129032;-38
2023/07/13 09:31:07;;;;;;;79.72;4.63;;;;;;;26.18;50.89;99339.53;7313238;19;129025;-41
2023/07/13 09:33:33;;;;;;;37.80;2.10;;;;;;;26.58;53.72;99341.03;7317701;19;129018;-42
2023/07/13 09:35:59;;;;;;;54.58;3.25;;;;;;;26.63;53.30;99334.25;7315965;19;130408;-40
2023/07/13 09:38:28;;;;;;;27.23;1.60;;;;;;;26.79;53.01;99343.88;7316120;19;129652;-42
2023/07/13 09:41:19;;;;;;;59.78;3.47;;;;;;;26.87;53.79;99341.97;7314079;19;129092;-38
2023/07/13 09:44:10;;;;;;;32.25;1.88;;;;;;;26.80;53.63;99325.22;7315476;19;130311;-39
2023/07/13 09:46:36;;;;;;;25.92;1.42;;;;;;;26.89;53.97;99355.78;7315852;19;130459;-39
2023/07/13 09:49:02;;;;;;;76.33;4.37;;;;;;;26.89;53.68;99345.25;7314582;19;131217;-42
2023/07/13 09:51:27;;;;;;;41.70;2.33;;;;;;;26.91;53.37;99348.53;7313295;19;129038;-40
2023/07/13 09:53:54;;;;;;;21.10;1.40;;;;;;;26.90;53.85;99352.19;7315212;19;130766;-40
2023/07/13 09:56:20;;;;;;;33.13;1.90;;;;;;;26.90;53.79;99368.00;7314014;19;130398;-40
2023/07/13 09:58:46;;;;;;;24.08;1.50;;;;;;;26.91;53.47;99368.81;7314540;19;128852;-42
2023/07/13 10:01:13;;;;;;;43.03;2.67;;;;;;;26.91;53.95;99367.00;7313462;19;129011;-42
2023/07/13 10:03:41;;;;;;;35.47;1.95;;;;;;;26.38;50.10;99351.25;7314650;19;131180;-42
2023/07/13 10:06:14;;;;;;;63.20;3.72;;;;;;;26.26;49.90;99352.66;7314971;19;130489;-40
2023/07/13 10:08:39;;;;;;;40.85;2.30;;;;;;;26.22;50.35;99364.56;7315281;19;129696;-42
2023/07/13 10:11:14;;;;;;;59.30;3.53;;;;;;;26.62;53.23;99361.63;7313836;19;129075;-41
2023/07/13 10:13:44;;;;;;;31.17;1.80;;;;;;;26.66;53.47;99349.75;7316056;19;130574;-41
2023/07/13 10:16:10;;;;;;;64.85;3.83;;;;;;;26.78;53.68;99356.25;7314506;19;131185;-42
2023/07/13 10:18:46;;;;;;;26.20;1.57;;;;;;;26.85;53.39;99349.25;7313627;19;129528;-42
2023/07/13 10:21:18;;;;;;;67.15;3.90;;;;;;;26.87;53.73;99362.25;7312006;19;128926;-40
2023/07/13 10:23:46;;;;;;;30.48;1.73;;;;;;;26.83;53.22;99351.25;7316270;19;131267;-41
2023/07/13 10:26:17;;;;;;;59.13;3.45;;;;;;;26.90;53.92;99367.19;7314645;19;129608;-41
2023/07/13 10:28:47;;;;;;;29.25;1.67;;;;;;;26.87;53.49;99363.06;7314457;19;129126;-43
2023/07/13 10:31:15;;;;;;;51.22;3.05;;;;;;;26.89;53.89;99366.34;7311334;19;130293;-41
2023/07/13 10:33:41;;;;;;;32.63;1.90;;;;;;;26.89;54.02;99369.00;7314494;19;130484;-41
2023/07/13 10:36:32;;;;;;;29.83;1.83;;;;;;;26.91;54.09;99359.09;7314604;19;131063;-39
2023/07/13 10:39:01;;;;;;;30.95;1.83;;;;;;;26.90;54.02;99357.47;7313869;19;130422;-41
2023/07/13 10:41:29;;;;;;;41.92;2.42;;;;;;;26.61;51.59;99357.34;7310908;19;131535;-41
2023/07/13 10:43:57;;;;;;;29.05;1.65;;;;;;;26.29;50.06;99357.59;7314340;19;130144;-38
2023/07/13 10:46:27;;;;;;;66.82;3.88;;;;;;;26.25;49.67;99361.56;7312893;19;130436;-41
2023/07/13 10:48:57;;;;;;;18.85;1.20;;;;;;;26.46;53.81;99343.28;7314101;19;128798;-40
2023/07/13 10:51:23;;;;;;;58.53;3.58;;;;;;;26.63;52.76;99339.53;7311634;19;129511;-42
2023/07/13 10:54:11;;;;;;;27.50;1.53;;;;;;;26.83;53.24;99343.34;7314798;19;131983;-42
2023/07/13 10:56:39;;;;;;;28.90;1.58;;;;;;;26.82;53.52;99344.31;7313624;19;130386;-41
2023/07/13 10:59:25;;;;;;;37.63;2.10;;;;;;;26.86;54.09;99340.34;7312826;19;129082;-40
2023/07/13 11:01:53;;;;;;;36.58;1.92;;;;;;;26.88;53.70;99345.44;7311090;19;128905;-40
2023/07/13 11:04:20;;;;;;;51.80;2.95;;;;;;;26.88;53.64;99340.97;7312295;19;130935;-40
2023/07/13 11:06:49;;;;;;;33.65;1.95;;;;;;;26.88;53.90;99338.34;7314110;19;129234;-41
2023/07/13 11:09:32;;;;;;;28.70;1.80;;;;;;;26.91;54.24;99337.97;7310397;19;129485;-37
2023/07/13 11:12:02;;;;;;;28.08;1.63;;;;;;;26.90;54.20;99346.91;7313640;19;129561;-42
2023/07/13 11:14:38;;;;;;;66.40;3.80;;;;;;;26.90;54.06;99346.91;7311422;19;130196;-40
2023/07/13 11:17:34;;;;;;;89.78;5.03;;;;;;;26.94;53.76;99357.88;7312352;19;129794;-40
2023/07/13 11:20:08;;;;;;;34.53;1.95;;;;;;;26.47;51.93;99350.22;7308963;19;129655;-40
2023/07/13 11:22:48;;;;;;;82.78;4.78;;;;;;;26.34;50.97;99355.25;7312399;19;129648;-42